Everson, Pennsylvania
Current Conditions -  °F | °C
As of 4:45 PM on Monday 26 Jan 2015 (Local Time) from KLBE Reporting Station
Light Snow Light Snow  
Wind Chill: 24°   Ceiling: 800
Heat Index: 30°   Visibility: 1.5mi
Dew Point: 30°   Wind: 6mph
Humidity: 100%   Direction: 20°NNE
Pressure: 29.71"   Gusts: NA
Location:  40.09°N, 79.59°W
Report Text: KLBE 262145Z 02005KT 1 1/2SM -SN OVC008 M01/M01 A2971
Loading
Personal Weather Stations






























Interactive Weather Map New forecast layout! Learn more

10-Day Weather Forecast

Advertisements
Track Severe Weather on mobile